Air Quality Table

TIMESTAMP NO2 SO2 PM10 PM2.5 CO TEMP HUM AIRPRES WS WD NO
2022-07-03 09:00 12.49 µg/m3 -0.43 µg/m3 N/A N/A N/A 27.61 °C 77.19 % 1,011.49 mbar 1.43 m/s 300.55 Deg 3.04 µg/m3
2022-07-03 01:00 13.85 µg/m3 0.23 µg/m3 N/A N/A N/A 28.41 °C 73.15 % 1,011.63 mbar 2.8 m/s 242.14 Deg 1 µg/m3
2022-07-02 17:00 27.88 µg/m3 1.01 µg/m3 N/A N/A N/A 32.98 °C 45.44 % 1,013.01 mbar 3.01 m/s 180.44 Deg 9.54 µg/m3
2022-07-02 09:00 21.3 µg/m3 0.85 µg/m3 N/A N/A N/A 28.05 °C 72.69 % 1,013.01 mbar 1.78 m/s 233.25 Deg 6.47 µg/m3
2022-07-02 01:00 33.61 µg/m3 2.21 µg/m3 N/A N/A N/A 29.15 °C 72.16 % 1,012.93 mbar 1.92 m/s 188.7 Deg 7.43 µg/m3
2022-07-01 17:00 31.98 µg/m3 1.08 µg/m3 N/A N/A N/A 32.03 °C 55.82 % 1,012.25 mbar 1.46 m/s 197.1 Deg 10.89 µg/m3
2022-07-01 09:00 23.03 µg/m3 0.56 µg/m3 N/A N/A N/A 26.62 °C 92.21 % 1,011.02 mbar 0.54 m/s 225.77 Deg 6.34 µg/m3
2022-07-01 01:00 25.28 µg/m3 0.56 µg/m3 N/A N/A N/A 27.51 °C 86.36 % 1,010.34 mbar 0.56 m/s 198.04 Deg 4.17 µg/m3
2022-06-30 17:00 16.46 µg/m3 0.84 µg/m3 N/A N/A N/A 30.13 °C 65.06 % 1,009.49 mbar 0.93 m/s 236.32 Deg 3.44 µg/m3
2022-06-30 09:00 43.26 µg/m3 1.27 µg/m3 N/A N/A N/A 27.2 °C 75.8 % 1,008.66 mbar 1.42 m/s 207.03 Deg 22.83 µg/m3
2022-06-30 01:00 19.96 µg/m3 0.83 µg/m3 N/A N/A N/A 28.4 °C 62.88 % 1,008.56 mbar 1.78 m/s 249.88 Deg 3.73 µg/m3
2022-06-29 17:00 34.34 µg/m3 1.6 µg/m3 N/A N/A N/A 31.46 °C 55.51 % 1,010.06 mbar 1.75 m/s 213.64 Deg 18.26 µg/m3
2022-06-29 09:00 30.04 µg/m3 1.29 µg/m3 N/A N/A N/A 27.15 °C 69.87 % 1,010.88 mbar 1.03 m/s 205.31 Deg 14.8 µg/m3
2022-06-29 01:00 35.65 µg/m3 0.49 µg/m3 N/A N/A N/A 30.52 °C 48.29 % 1,011.41 mbar 1.87 m/s 206.15 Deg 12.43 µg/m3
2022-06-28 17:00 33.13 µg/m3 1.47 µg/m3 N/A N/A N/A 31.65 °C 46.88 % 1,012.39 mbar 1.02 m/s 137.73 Deg 16.97 µg/m3
2022-06-28 09:00 45.17 µg/m3 2.4 µg/m3 N/A N/A N/A 27.32 °C 52.96 % 1,012.15 mbar 0.96 m/s 144.12 Deg 67.25 µg/m3
2022-06-28 01:00 34.69 µg/m3 1.05 µg/m3 N/A N/A N/A 29.56 °C 49.24 % 1,012.94 mbar 2.09 m/s 191.41 Deg 11.99 µg/m3
2022-06-27 17:00 32.07 µg/m3 1.08 µg/m3 N/A N/A N/A 31.84 °C 49.1 % 1,014.32 mbar 1.53 m/s 215.8 Deg 20.46 µg/m3
2022-06-27 09:00 26.43 µg/m3 0.2 µg/m3 N/A N/A N/A 26.73 °C 81.35 % 1,012.94 mbar 0.76 m/s 224.97 Deg 7.89 µg/m3
2022-06-27 01:00 32.45 µg/m3 0.25 µg/m3 N/A N/A N/A 28.69 °C 71.67 % 1,012.69 mbar 0.91 m/s 195.92 Deg 7.18 µg/m3

It is to be noted that the data is provisional and subject to quality assurance procedures. For validated data kindly refer your request to contact.air@era.org.mt